KGCM

Claremore Regional Airport

Claremore, Oklahoma, USA
METAR KGCM 171635Z AUTO 10013G17KT 10SM BKN010 BKN075 23/21 A3007 RMK AO2 LTG DSNT SE
Observed Flight Rules
Aug-17 @ 16:35 UTC (17 minutes ago) Marginal Visual Flight Rules
Wind Visibility Clouds
100° at 13 knots
 Gusting to 17 knots
10 miles
  • Broken at 1,000' AGL
  • Broken at 7,500' AGL
Temperatures Readings
Current 23°C / 73°F
Dewpoint 21°C / 70°F
Humidity 89%
Altimeter 30.07" Hg
Pressure 1018 hPa
Elevation 221
METAR KGCM 171635Z AUTO 10013G17KT 10SM BKN010 BKN075 23/21 A3007 RMK AO2 LTG DSNT SE
Observed Flight Rules
Aug-17 @ 16:35 UTC
(17 minutes ago)
MVFR
Wind Visibility
100° at 13 knots
 Gusting to 17 knots
10 miles
Clouds
  • Broken at 1,000' AGL
  • Broken at 7,500' AGL
Temperature Dewpoint
23°C / 73°F 21°C / 70°F
Humidity Altimeter Pressure
89% 30.07" Hg 1018 hPa